createdAt,value
2023-04-27T00:01:13.493Z,7.50
2023-04-27T00:03:41.394Z,7.50
2023-04-27T00:06:09.569Z,7.40
2023-04-27T00:08:36.721Z,7.40
2023-04-27T00:11:03.635Z,7.40
2023-04-27T00:13:30.459Z,7.40
2023-04-27T00:15:57.108Z,7.30
2023-04-27T00:18:23.949Z,7.30
2023-04-27T00:20:50.615Z,7.30
2023-04-27T00:23:17.392Z,7.20
2023-04-27T00:25:44.077Z,7.20
2023-04-27T00:28:10.950Z,7.20
2023-04-27T00:30:37.736Z,7.20
2023-04-27T00:33:04.528Z,7.20
2023-04-27T00:35:33.302Z,7.10
2023-04-27T00:38:00.074Z,7.10
2023-04-27T00:40:26.654Z,7.10
2023-04-27T00:42:53.332Z,7.00
2023-04-27T00:45:20.206Z,6.90
2023-04-27T00:47:47.003Z,7.00
2023-04-27T00:50:14.916Z,6.90
2023-04-27T00:52:42.148Z,6.90
2023-04-27T00:55:09.556Z,6.90
2023-04-27T00:57:36.330Z,6.80
2023-04-27T01:00:06.654Z,6.80
2023-04-27T01:02:33.655Z,6.80
2023-04-27T01:05:01.959Z,6.80
2023-04-27T01:07:29.298Z,6.80
2023-04-27T01:09:56.421Z,6.70
2023-04-27T01:12:23.056Z,6.70
2023-04-27T01:14:49.750Z,6.70
2023-04-27T01:17:18.226Z,6.70
2023-04-27T01:19:45.139Z,6.70
2023-04-27T01:22:11.895Z,6.70
2023-04-27T01:24:38.574Z,6.60
2023-04-27T01:27:05.469Z,6.60
2023-04-27T01:29:32.433Z,6.60
2023-04-27T01:31:59.348Z,6.60
2023-04-27T01:34:25.952Z,6.50
2023-04-27T01:36:52.585Z,6.50
2023-04-27T01:39:19.224Z,6.50
2023-04-27T01:41:45.902Z,6.50
2023-04-27T01:44:12.510Z,6.40
2023-04-27T01:46:39.311Z,6.50
2023-04-27T01:49:06.254Z,6.40
2023-04-27T01:51:33.024Z,6.40
2023-04-27T01:53:59.915Z,6.40
2023-04-27T01:56:26.641Z,6.40
2023-04-27T01:58:53.665Z,6.30
2023-04-27T02:01:20.558Z,6.30
2023-04-27T02:03:47.465Z,6.30
2023-04-27T02:06:16.496Z,6.30
2023-04-27T02:08:43.162Z,6.30
2023-04-27T02:11:09.907Z,6.30
2023-04-27T02:13:37.769Z,6.20
2023-04-27T02:16:05.259Z,6.20
2023-04-27T02:18:33.571Z,6.20
2023-04-27T02:21:00.610Z,6.20
2023-04-27T02:23:27.398Z,6.20
2023-04-27T02:25:54.048Z,6.20
2023-04-27T02:28:20.730Z,6.20
2023-04-27T02:30:47.822Z,6.20
2023-04-27T02:33:14.571Z,6.20
2023-04-27T02:35:41.212Z,6.20
2023-04-27T02:38:07.895Z,6.20
2023-04-27T02:40:34.501Z,6.20
2023-04-27T02:43:01.084Z,6.20
2023-04-27T02:45:28.458Z,6.20
2023-04-27T02:47:55.221Z,6.20
2023-04-27T02:50:22.028Z,6.20
2023-04-27T02:52:48.700Z,6.20
2023-04-27T02:55:15.938Z,6.20
2023-04-27T02:57:42.937Z,6.20
2023-04-27T03:00:11.009Z,6.20
2023-04-27T03:02:37.831Z,6.20
2023-04-27T03:05:05.309Z,6.20
2023-04-27T03:07:32.255Z,6.20
2023-04-27T03:09:59.329Z,6.20
2023-04-27T03:12:25.994Z,6.10
2023-04-27T03:14:52.730Z,6.20
2023-04-27T03:17:19.933Z,6.10
2023-04-27T03:19:49.136Z,6.10
2023-04-27T03:22:15.890Z,6.10
2023-04-27T03:24:42.986Z,6.10
2023-04-27T03:27:09.874Z,6.10
2023-04-27T03:29:36.597Z,6.10
2023-04-27T03:32:04.515Z,6.10
2023-04-27T03:34:31.669Z,6.10
2023-04-27T03:36:58.413Z,6.10
2023-04-27T03:39:25.058Z,6.10
2023-04-27T03:41:51.680Z,6.10
2023-04-27T03:44:18.516Z,6.00
2023-04-27T03:46:45.358Z,6.00
2023-04-27T03:49:12.189Z,6.00
2023-04-27T03:51:42.212Z,6.00
2023-04-27T03:54:09.945Z,6.00
2023-04-27T03:56:37.012Z,6.00
2023-04-27T03:59:04.985Z,6.00
2023-04-27T04:01:31.915Z,6.00
2023-04-27T04:03:58.776Z,6.00
2023-04-27T04:06:26.148Z,5.90
2023-04-27T04:08:52.766Z,5.90
2023-04-27T04:11:19.392Z,5.90
2023-04-27T04:13:46.166Z,5.90
2023-04-27T04:16:13.843Z,5.90
2023-04-27T04:18:40.888Z,5.90
2023-04-27T04:21:11.090Z,5.90
2023-04-27T04:23:38.390Z,5.90
2023-04-27T04:26:05.712Z,5.90
2023-04-27T04:28:32.462Z,5.90
2023-04-27T04:31:01.282Z,5.90
2023-04-27T04:33:28.049Z,5.90
2023-04-27T04:35:54.675Z,5.90
2023-04-27T04:38:21.323Z,5.90
2023-04-27T04:40:47.991Z,5.90
2023-04-27T04:43:14.670Z,5.90
2023-04-27T04:45:42.585Z,5.90
2023-04-27T04:48:10.254Z,5.90
2023-04-27T04:50:37.080Z,5.90
2023-04-27T04:53:03.807Z,5.90
2023-04-27T04:55:30.604Z,5.90
2023-04-27T04:57:57.199Z,5.90
2023-04-27T05:00:23.929Z,5.90
2023-04-27T05:02:50.709Z,5.90
2023-04-27T05:05:17.545Z,5.90
2023-04-27T05:07:44.149Z,5.90
2023-04-27T05:10:10.910Z,5.90
2023-04-27T05:12:37.700Z,5.90
2023-04-27T05:15:05.143Z,5.90
2023-04-27T05:17:32.031Z,5.90
2023-04-27T05:19:58.705Z,5.90
2023-04-27T05:22:25.390Z,5.90
2023-04-27T05:24:52.126Z,6.00
2023-04-27T05:27:18.828Z,6.00
2023-04-27T05:29:45.499Z,6.00
2023-04-27T05:32:12.483Z,6.00
2023-04-27T05:34:39.159Z,6.00
2023-04-27T05:37:05.828Z,6.00
2023-04-27T05:39:32.847Z,6.00
2023-04-27T05:41:59.573Z,6.10
2023-04-27T05:44:28.535Z,6.00
2023-04-27T05:46:56.121Z,6.00
2023-04-27T05:49:23.258Z,6.10
2023-04-27T05:51:50.215Z,6.10
2023-04-27T05:54:16.845Z,6.10
2023-04-27T05:56:43.603Z,6.10
2023-04-27T05:59:10.306Z,6.10
2023-04-27T06:01:37.117Z,6.10
2023-04-27T06:04:04.727Z,6.20
2023-04-27T06:06:32.943Z,6.10
2023-04-27T06:08:59.803Z,6.20
2023-04-27T06:11:26.749Z,6.20
2023-04-27T06:13:53.390Z,6.20
2023-04-27T06:16:21.277Z,6.20
2023-04-27T06:18:50.214Z,6.30
2023-04-27T06:21:17.967Z,6.40
2023-04-27T06:23:44.708Z,6.40
2023-04-27T06:26:11.638Z,6.50
2023-04-27T06:28:38.643Z,6.60
2023-04-27T06:31:06.299Z,6.60
2023-04-27T06:33:33.353Z,6.70
2023-04-27T06:36:01.289Z,6.80
2023-04-27T06:38:28.068Z,6.90
2023-04-27T06:40:54.991Z,7.00
2023-04-27T06:43:22.189Z,7.10
2023-04-27T06:45:48.905Z,7.20
2023-04-27T06:48:15.883Z,7.30
2023-04-27T06:50:43.378Z,7.40
2023-04-27T06:53:10.319Z,7.50
2023-04-27T06:55:37.038Z,7.60
2023-04-27T06:58:03.733Z,7.70
2023-04-27T07:00:30.855Z,7.70
2023-04-27T07:02:57.676Z,7.90
2023-04-27T07:05:24.351Z,8.00
2023-04-27T07:07:51.077Z,8.10
2023-04-27T07:10:17.850Z,8.20
2023-04-27T07:12:44.874Z,8.30
2023-04-27T07:15:11.551Z,8.40
2023-04-27T07:17:38.385Z,8.60
2023-04-27T07:20:06.357Z,8.70
2023-04-27T07:22:33.631Z,8.90
2023-04-27T07:25:00.408Z,9.10
2023-04-27T07:27:27.359Z,9.20
2023-04-27T07:29:54.633Z,9.40
2023-04-27T07:32:22.500Z,9.60
2023-04-27T07:34:53.954Z,9.80
2023-04-27T07:37:21.824Z,10.10
2023-04-27T07:39:54.416Z,10.30
2023-04-27T07:42:25.074Z,10.50
2023-04-27T07:44:52.605Z,10.70
2023-04-27T07:47:19.463Z,11.00
2023-04-27T07:49:47.089Z,11.20
2023-04-27T07:52:14.185Z,11.40
2023-04-27T07:54:41.074Z,11.70
2023-04-27T07:57:10.084Z,11.90
2023-04-27T07:59:36.961Z,12.20
2023-04-27T08:02:18.573Z,12.40
2023-04-27T08:04:47.274Z,12.70
2023-04-27T08:07:16.027Z,13.00
2023-04-27T08:09:43.168Z,13.20
2023-04-27T08:12:09.859Z,13.50
2023-04-27T08:14:36.764Z,13.70
2023-04-27T08:17:03.686Z,13.90
2023-04-27T08:19:30.533Z,14.20
2023-04-27T08:21:57.158Z,14.40
2023-04-27T08:24:23.808Z,14.60
2023-04-27T08:26:50.626Z,14.80
2023-04-27T08:29:27.016Z,15.00
2023-04-27T08:31:59.382Z,15.20
2023-04-27T08:34:26.781Z,15.50
2023-04-27T08:36:54.180Z,15.70
2023-04-27T08:39:21.438Z,15.90
2023-04-27T08:41:48.108Z,16.10
2023-04-27T08:44:14.832Z,16.40
2023-04-27T08:46:41.677Z,16.60
2023-04-27T08:49:09.780Z,16.80
2023-04-27T08:51:36.699Z,17.10
2023-04-27T08:54:03.397Z,17.20
2023-04-27T08:56:30.620Z,17.50
2023-04-27T08:58:58.266Z,17.70
2023-04-27T09:01:26.224Z,18.00
2023-04-27T09:03:58.348Z,18.20
2023-04-27T09:06:35.443Z,18.40
2023-04-27T09:09:03.327Z,18.60
2023-04-27T09:11:34.709Z,18.90
2023-04-27T09:14:03.380Z,19.10
2023-04-27T09:16:31.367Z,19.40
2023-04-27T09:18:58.942Z,19.60
2023-04-27T09:21:27.992Z,19.70
2023-04-27T09:23:55.945Z,19.90
2023-04-27T09:26:25.050Z,20.10
2023-04-27T09:28:54.616Z,20.30
2023-04-27T09:31:21.661Z,20.50
2023-04-27T09:33:55.052Z,20.60
2023-04-27T09:36:22.628Z,20.80
2023-04-27T09:38:51.692Z,20.90
2023-04-27T09:41:18.851Z,21.10
2023-04-27T09:43:46.138Z,21.10
2023-04-27T09:46:13.816Z,21.20
2023-04-27T09:48:41.577Z,21.40
2023-04-27T09:51:08.575Z,21.40
2023-04-27T09:53:48.493Z,21.60
2023-04-27T09:56:44.887Z,21.60
2023-04-27T09:59:46.708Z,21.70
2023-04-27T10:02:24.758Z,21.80
2023-04-27T10:05:10.779Z,22.00
2023-04-27T10:07:39.273Z,22.10
2023-04-27T10:10:07.287Z,22.20
2023-04-27T10:12:36.512Z,22.30
2023-04-27T10:15:17.484Z,22.40
2023-04-27T10:17:53.372Z,22.60
2023-04-27T10:20:30.554Z,22.70
2023-04-27T10:22:58.790Z,22.80
2023-04-27T10:25:40.369Z,22.90
2023-04-27T10:28:10.044Z,23.10
2023-04-27T10:30:43.753Z,23.20
2023-04-27T10:33:11.851Z,23.30
2023-04-27T10:35:44.229Z,23.50
2023-04-27T10:38:18.529Z,23.60
2023-04-27T10:40:55.274Z,23.70
2023-04-27T10:43:26.496Z,23.90
2023-04-27T10:45:53.726Z,24.10
2023-04-27T10:48:20.729Z,24.20
2023-04-27T10:50:47.651Z,24.40
2023-04-27T10:53:15.565Z,24.50
2023-04-27T10:55:42.343Z,24.70
2023-04-27T10:58:09.050Z,24.80
2023-04-27T11:00:38.577Z,25.10
2023-04-27T11:03:18.097Z,25.20
2023-04-27T11:05:46.730Z,25.40
2023-04-27T11:08:18.292Z,25.60
2023-04-27T11:10:49.772Z,25.80
2023-04-27T11:13:22.175Z,25.90
2023-04-27T11:15:57.762Z,26.10
2023-04-27T11:18:31.554Z,26.40
2023-04-27T11:21:15.616Z,26.50
2023-04-27T11:23:42.685Z,26.70
2023-04-27T11:26:30.858Z,26.90
2023-04-27T11:28:59.065Z,27.10
2023-04-27T11:31:26.848Z,27.20
2023-04-27T11:33:56.087Z,27.50
2023-04-27T11:36:24.352Z,27.60
2023-04-27T11:38:51.081Z,27.80
2023-04-27T11:41:17.864Z,27.90
2023-04-27T11:43:49.483Z,28.10
2023-04-27T11:46:21.343Z,28.20
2023-04-27T11:48:48.817Z,28.30
2023-04-27T11:51:15.566Z,28.50
2023-04-27T11:53:42.804Z,28.60
2023-04-27T11:56:11.079Z,28.70
2023-04-27T11:58:39.359Z,28.90
2023-04-27T12:01:07.280Z,29.00
2023-04-27T12:03:35.036Z,29.10
2023-04-27T12:08:31.771Z,29.40
2023-04-27T12:10:58.441Z,29.50
2023-04-27T12:13:25.234Z,29.50
2023-04-27T12:15:52.289Z,29.60
2023-04-27T12:18:18.989Z,29.70
2023-04-27T12:20:46.399Z,29.80
2023-04-27T12:23:13.180Z,29.90
2023-04-27T12:25:41.113Z,30.00
2023-04-27T12:28:07.991Z,30.00
2023-04-27T12:30:35.132Z,30.10
2023-04-27T12:33:06.766Z,30.10
2023-04-27T12:35:33.404Z,30.20
2023-04-27T12:38:00.082Z,30.30
2023-04-27T12:40:26.845Z,30.40
2023-04-27T12:42:53.530Z,30.40
2023-04-27T12:45:20.570Z,30.50
2023-04-27T12:48:01.678Z,30.50
2023-04-27T12:50:32.393Z,30.60
2023-04-27T12:52:59.698Z,30.60
2023-04-27T12:55:33.546Z,30.60
2023-04-27T12:58:01.902Z,30.60
2023-04-27T13:00:29.736Z,30.60
2023-04-27T13:02:57.419Z,30.50
2023-04-27T13:05:24.419Z,30.50
2023-04-27T13:07:51.082Z,30.40
2023-04-27T13:10:17.757Z,30.30
2023-04-27T13:12:45.626Z,30.20
2023-04-27T13:15:12.431Z,30.10
2023-04-27T13:17:40.603Z,30.10
2023-04-27T13:20:09.751Z,29.90
2023-04-27T13:22:36.452Z,29.90
2023-04-27T13:25:03.407Z,29.90
2023-04-27T13:27:30.129Z,29.80
2023-04-27T13:29:56.757Z,29.80
2023-04-27T13:32:23.415Z,29.70
2023-04-27T13:34:50.083Z,29.70
2023-04-27T13:37:18.575Z,29.60
2023-04-27T13:39:45.700Z,29.60
2023-04-27T13:42:12.637Z,29.60
2023-04-27T13:44:39.410Z,29.50
2023-04-27T13:47:06.766Z,29.40
2023-04-27T13:49:33.731Z,29.30
2023-04-27T13:52:00.780Z,29.10
2023-04-27T13:54:27.696Z,29.00
2023-04-27T13:56:54.434Z,28.80
2023-04-27T13:59:21.730Z,28.70
2023-04-27T14:01:48.552Z,28.60
2023-04-27T14:04:15.373Z,28.50
2023-04-27T14:06:42.130Z,28.40
2023-04-27T14:09:09.337Z,28.20
2023-04-27T14:11:45.025Z,28.10
2023-04-27T14:14:19.353Z,28.10
2023-04-27T14:16:46.302Z,28.00
2023-04-27T14:19:16.048Z,27.90
2023-04-27T14:21:42.897Z,27.70
2023-04-27T14:24:09.532Z,27.70
2023-04-27T14:26:36.174Z,27.60
2023-04-27T14:29:02.825Z,27.50
2023-04-27T14:31:29.686Z,27.40
2023-04-27T14:33:59.421Z,27.20
2023-04-27T14:36:27.256Z,27.20
2023-04-27T14:38:53.881Z,27.10
2023-04-27T14:41:20.917Z,27.00
2023-04-27T14:43:48.769Z,26.80
2023-04-27T14:46:20.824Z,26.70
2023-04-27T14:48:48.867Z,26.70
2023-04-27T14:51:16.302Z,26.60
2023-04-27T14:53:43.893Z,26.50
2023-04-27T14:56:11.099Z,26.40
2023-04-27T14:58:37.760Z,26.30
2023-04-27T15:01:04.481Z,26.20
2023-04-27T15:03:32.647Z,26.10
2023-04-27T15:06:00.463Z,25.90
2023-04-27T15:08:27.319Z,25.80
2023-04-27T15:10:57.650Z,25.70
2023-04-27T15:13:24.841Z,25.60
2023-04-27T15:15:59.150Z,25.40
2023-04-27T15:18:25.907Z,25.30
2023-04-27T15:20:54.092Z,25.20
2023-04-27T15:23:21.363Z,25.10
2023-04-27T15:25:48.835Z,24.90
2023-04-27T15:28:16.684Z,24.80
2023-04-27T15:30:44.247Z,24.70
2023-04-27T15:33:12.232Z,24.60
2023-04-27T15:35:40.299Z,24.40
2023-04-27T15:38:09.558Z,24.30
2023-04-27T15:40:36.361Z,24.10
2023-04-27T15:43:03.182Z,24.10
2023-04-27T15:45:29.941Z,23.90
2023-04-27T15:47:57.131Z,23.80
2023-04-27T15:50:24.281Z,23.60
2023-04-27T15:52:52.058Z,23.50
2023-04-27T15:55:19.053Z,23.40
2023-04-27T15:57:45.756Z,23.20
2023-04-27T16:00:13.239Z,23.20
2023-04-27T16:02:40.607Z,23.10
2023-04-27T16:05:08.523Z,22.90
2023-04-27T16:07:36.361Z,22.80
2023-04-27T16:10:03.957Z,22.70
2023-04-27T16:12:30.984Z,22.60
2023-04-27T16:14:58.066Z,22.50
2023-04-27T16:17:26.720Z,22.40
2023-04-27T16:19:53.676Z,22.30
2023-04-27T16:22:21.157Z,22.20
2023-04-27T16:24:48.080Z,22.10
2023-04-27T16:27:14.729Z,21.90
2023-04-27T16:29:41.354Z,21.80
2023-04-27T16:32:08.247Z,21.70
2023-04-27T16:34:35.909Z,21.60
2023-04-27T16:37:02.699Z,21.40
2023-04-27T16:39:29.462Z,21.30
2023-04-27T16:41:56.099Z,21.20
2023-04-27T16:44:23.683Z,21.10
2023-04-27T16:46:53.652Z,20.90
2023-04-27T16:49:20.321Z,20.80
2023-04-27T16:51:47.148Z,20.70
2023-04-27T16:54:16.450Z,20.60
2023-04-27T16:56:43.505Z,20.40
2023-04-27T16:59:12.731Z,20.30
2023-04-27T17:01:39.925Z,20.20
2023-04-27T17:04:06.759Z,20.10
2023-04-27T17:06:34.662Z,20.00
2023-04-27T17:09:01.459Z,19.90
2023-04-27T17:11:28.168Z,19.80
2023-04-27T17:13:54.806Z,19.70
2023-04-27T17:16:21.851Z,19.60
2023-04-27T17:18:48.866Z,19.50
2023-04-27T17:21:16.753Z,19.40
2023-04-27T17:23:46.371Z,19.20
2023-04-27T17:26:15.727Z,19.20
2023-04-27T17:28:42.362Z,19.10
2023-04-27T17:31:09.051Z,19.00
2023-04-27T17:33:36.015Z,18.90
2023-04-27T17:36:02.723Z,18.70
2023-04-27T17:38:29.416Z,18.70
2023-04-27T17:40:56.248Z,18.60
2023-04-27T17:43:23.173Z,18.40
2023-04-27T17:45:49.880Z,18.40
2023-04-27T17:48:16.930Z,18.30
2023-04-27T17:50:43.791Z,18.20
2023-04-27T17:53:10.457Z,18.10
2023-04-27T17:55:37.099Z,18.00
2023-04-27T17:58:04.139Z,17.90
2023-04-27T18:00:31.013Z,17.80
2023-04-27T18:02:57.963Z,17.70
2023-04-27T18:05:24.799Z,17.60
2023-04-27T18:07:51.797Z,17.60
2023-04-27T18:10:18.486Z,17.40
2023-04-27T18:12:45.254Z,17.40
2023-04-27T18:15:11.995Z,17.20
2023-04-27T18:17:38.855Z,17.20
2023-04-27T18:20:09.477Z,17.10
2023-04-27T18:22:38.473Z,17.10
2023-04-27T18:25:05.646Z,16.90
2023-04-27T18:27:32.900Z,16.90
2023-04-27T18:29:59.702Z,16.80
2023-04-27T18:32:26.437Z,16.70
2023-04-27T18:34:53.902Z,16.60
2023-04-27T18:37:20.600Z,16.60
2023-04-27T18:39:47.287Z,16.50
2023-04-27T18:42:14.111Z,16.40
2023-04-27T18:44:40.823Z,16.40
2023-04-27T18:47:07.884Z,16.30
2023-04-27T18:49:34.634Z,16.20
2023-04-27T18:52:01.436Z,16.20
2023-04-27T18:54:28.100Z,16.10
2023-04-27T18:56:54.861Z,16.10
2023-04-27T18:59:21.575Z,16.00
2023-04-27T19:01:48.438Z,15.90
2023-04-27T19:04:16.384Z,15.80
2023-04-27T19:06:43.130Z,15.80
2023-04-27T19:09:10.020Z,15.70
2023-04-27T19:11:36.700Z,15.70
2023-04-27T19:14:03.384Z,15.60
2023-04-27T19:16:30.331Z,15.60
2023-04-27T19:18:57.236Z,15.50
2023-04-27T19:21:24.013Z,15.40
2023-04-27T19:23:51.123Z,15.40
2023-04-27T19:26:17.885Z,15.40
2023-04-27T19:28:44.600Z,15.20
2023-04-27T19:31:11.459Z,15.20
2023-04-27T19:33:38.378Z,15.20
2023-04-27T19:36:05.488Z,15.10
2023-04-27T19:38:32.155Z,15.10
2023-04-27T19:40:58.790Z,15.00
2023-04-27T19:43:26.068Z,14.90
2023-04-27T19:45:53.270Z,14.90
2023-04-27T19:48:19.891Z,14.80
2023-04-27T19:50:46.549Z,14.80
2023-04-27T19:53:13.307Z,14.70
2023-04-27T19:55:40.641Z,14.70
2023-04-27T19:58:07.286Z,14.60
2023-04-27T20:00:34.173Z,14.60
2023-04-27T20:03:01.310Z,14.50
2023-04-27T20:05:28.453Z,14.40
2023-04-27T20:07:55.438Z,14.40
2023-04-27T20:10:22.110Z,14.40
2023-04-27T20:12:56.738Z,14.30
2023-04-27T20:15:24.703Z,14.30
2023-04-27T20:17:52.407Z,14.20
2023-04-27T20:20:19.524Z,14.20
2023-04-27T20:22:46.232Z,14.20
2023-04-27T20:25:14.465Z,14.10
2023-04-27T20:27:41.537Z,14.10
2023-04-27T20:30:09.022Z,14.10
2023-04-27T20:32:36.305Z,14.10
2023-04-27T20:35:04.435Z,14.00
2023-04-27T20:37:32.131Z,14.00
2023-04-27T20:39:59.279Z,14.00
2023-04-27T20:42:26.053Z,13.90
2023-04-27T20:44:54.667Z,13.90
2023-04-27T20:47:21.590Z,13.80
2023-04-27T20:49:48.349Z,13.80
2023-04-27T20:52:15.041Z,13.80
2023-04-27T20:54:41.769Z,13.80
2023-04-27T20:57:13.386Z,13.70
2023-04-27T20:59:41.055Z,13.70
2023-04-27T21:02:08.128Z,13.70
2023-04-27T21:04:34.911Z,13.70
2023-04-27T21:07:01.620Z,13.70
2023-04-27T21:09:28.288Z,13.70
2023-04-27T21:11:54.955Z,13.60
2023-04-27T21:14:21.663Z,13.60
2023-04-27T21:16:48.402Z,13.60
2023-04-27T21:19:16.501Z,13.60
2023-04-27T21:21:43.408Z,13.60
2023-04-27T21:24:10.155Z,13.50
2023-04-27T21:26:36.958Z,13.50
2023-04-27T21:29:05.772Z,13.50
2023-04-27T21:31:33.400Z,13.50
2023-04-27T21:34:00.709Z,13.40
2023-04-27T21:36:27.565Z,13.40
2023-04-27T21:38:54.435Z,13.40
2023-04-27T21:41:21.106Z,13.40
2023-04-27T21:43:47.729Z,13.40
2023-04-27T21:46:14.627Z,13.40
2023-04-27T21:48:41.261Z,13.30
2023-04-27T21:51:08.136Z,13.30
2023-04-27T21:53:34.844Z,13.30
2023-04-27T21:56:01.407Z,13.30
2023-04-27T21:58:28.459Z,13.30
2023-04-27T22:00:55.078Z,13.20
2023-04-27T22:03:22.659Z,13.20
2023-04-27T22:05:50.276Z,13.20
2023-04-27T22:08:19.796Z,13.20
2023-04-27T22:10:47.141Z,13.20
2023-04-27T23:21:04.428Z,12.60
2023-04-27T23:23:31.409Z,12.60
2023-04-27T23:25:58.021Z,12.60
2023-04-27T23:32:15.718Z,12.60
2023-04-27T23:34:42.409Z,12.60
2023-04-27T23:37:09.121Z,12.60
2023-04-27T23:39:35.756Z,12.50
2023-04-27T23:42:03.372Z,12.60
2023-04-27T23:48:10.947Z,12.50
